Fort Dodge Regional Airport Fort Dodge US
ICAO: KFOD
IATA: FOD
Category: Medium
Scheduled Services: Yes

Elevation: 1156 ft
TransAlt. 18000 ft.

Airport Communications:
AWOS 3:118.775
MINNEAPOLIS CNTR:134
RDO:122.3
CTAF/UNICOM:122.95

KFOD Zoom In..

Runways:

(A) RW 06 length 6547 ft width 150 ft
ILS 109.10 / hdg 63

(B) RW 12 length 5301 ft width 100 ft
---- / hdg 125

(C) RW 24 length 6547 ft width 150 ft
---- / hdg 243

(D) RW 30 length 5301 ft width 100 ft
---- / hdg 305

Location; KFOD
Day. 09 / Time. 21.56 Zulu
* Altimeter: 29.87
* Temperature: 23° c. 73.4°f.
* Wind from: 350° Speed 08 kn.
Dewpoint: 19° c.
Visibility: 10 Statute Miles.
Clouds: Scattered 2200 ft.

KFOD 092156Z AUTO 35008KT 10SM SCT022 23/19 A2987 RMK AO2 SLP134 T02330194

Going to: --> -->


Wind From 350°
Speed 08 kn.

 
 
jpsmedia worldairports.se 2020   terms of use